KLCK/LCK METAR and TAF weather

Enter ICAO airport designator
Station Type Date Time Source
KLCK METAR 2020/09/25 05:55 UTC NOAA

KLCK 250555Z AUTO 00000KT 10SM CLR 14/12 A3002 RMK AO2 T01380124 10324 20037 403240037


Station Type Date Time Source
KLCK Decoded METAR 2020/09/25 05:55 UTC NOAA

Rickenbacker Air National Guard Base, OH, United States (KLCK) 39-49N 082-56W
Sep 25, 2020 - 01:55 AM EDT / 2020.09.25 0555 UTC
Wind: Calm:0
Visibility: 10 mile(s):0
Sky conditions: clear
Temperature: 56.8 F (13.8 C)
Dew Point: 54.3 F (12.4 C)
Relative Humidity: 91%
Pressure (altimeter): 30.02 in. Hg (1016 hPa)
ob: KLCK 250555Z AUTO 00000KT 10SM CLR 14/12 A3002 RMK AO2 T01380124 10324 20037 403240037
cycle: 6

Station Type Date Time Source
KLCK TAF 2020/09/25 06:36 UTC NOAA

TAF KLCK 250530Z 2506/2606 VRB03KT P6SM SKC
FM251400 11006KT P6SM FEW050
FM260000 VRB03KT P6SM FEW100

Example: see airport list